createdAt,value
2019-05-29T00:00:31.574Z,9.80
2019-05-29T00:03:18.624Z,9.80
2019-05-29T00:06:06.178Z,9.80
2019-05-29T00:08:52.978Z,9.80
2019-05-29T00:11:39.512Z,9.90
2019-05-29T00:14:27.607Z,9.60
2019-05-29T00:17:14.648Z,9.70
2019-05-29T00:20:01.749Z,9.60
2019-05-29T00:22:48.177Z,9.80
2019-05-29T00:25:34.498Z,9.80
2019-05-29T00:28:21.033Z,9.90
2019-05-29T00:31:07.747Z,9.90
2019-05-29T00:33:54.131Z,10.00
2019-05-29T00:36:40.561Z,9.70
2019-05-29T00:39:26.969Z,9.70
2019-05-29T00:42:14.861Z,9.70
2019-05-29T00:45:01.788Z,9.70
2019-05-29T00:47:48.203Z,9.80
2019-05-29T00:50:35.038Z,9.90
2019-05-29T00:53:21.295Z,10.00
2019-05-29T00:56:08.518Z,10.00
2019-05-29T00:58:55.313Z,9.90
2019-05-29T01:01:41.929Z,9.90
2019-05-29T01:04:28.619Z,10.00
2019-05-29T01:07:16.282Z,10.00
2019-05-29T01:10:03.303Z,10.10
2019-05-29T01:12:49.822Z,10.00
2019-05-29T01:15:36.754Z,10.10
2019-05-29T01:18:23.707Z,10.10
2019-05-29T01:21:10.300Z,10.20
2019-05-29T01:23:56.695Z,10.20
2019-05-29T01:26:43.249Z,10.20
2019-05-29T01:29:29.680Z,10.10
2019-05-29T01:32:17.516Z,10.10
2019-05-29T01:35:05.840Z,10.10
2019-05-29T01:37:52.653Z,10.20
2019-05-29T01:40:39.125Z,10.30
2019-05-29T01:43:25.976Z,10.20
2019-05-29T01:46:12.396Z,10.30
2019-05-29T01:48:58.757Z,10.10
2019-05-29T01:51:45.374Z,10.10
2019-05-29T01:54:31.738Z,10.20
2019-05-29T01:57:18.102Z,10.20
2019-05-29T02:00:08.180Z,10.30
2019-05-29T02:02:55.537Z,10.20
2019-05-29T02:05:41.900Z,10.10
2019-05-29T02:08:28.340Z,10.20
2019-05-29T02:11:15.082Z,10.20
2019-05-29T02:14:01.763Z,10.10
2019-05-29T02:16:48.182Z,10.10
2019-05-29T02:19:34.657Z,10.10
2019-05-29T02:22:21.021Z,10.30
2019-05-29T02:25:07.412Z,10.40
2019-05-29T02:27:54.213Z,10.40
2019-05-29T02:30:40.479Z,10.30
2019-05-29T02:33:28.374Z,10.20
2019-05-29T02:36:15.318Z,10.20
2019-05-29T02:39:02.070Z,10.10
2019-05-29T02:41:48.894Z,9.90
2019-05-29T02:44:35.802Z,9.90
2019-05-29T02:47:23.565Z,9.90
2019-05-29T02:50:10.434Z,10.00
2019-05-29T02:52:57.663Z,10.00
2019-05-29T02:55:44.091Z,10.10
2019-05-29T02:58:31.803Z,10.00
2019-05-29T03:01:18.749Z,10.10
2019-05-29T03:04:05.130Z,10.10
2019-05-29T03:06:51.396Z,10.10
2019-05-29T03:09:37.976Z,10.10
2019-05-29T03:12:25.109Z,10.10
2019-05-29T03:15:11.660Z,10.10
2019-05-29T03:17:58.396Z,10.00
2019-05-29T03:20:44.535Z,10.00
2019-05-29T03:23:33.304Z,10.20
2019-05-29T03:26:18.908Z,10.20
2019-05-29T03:29:05.476Z,10.10
2019-05-29T03:31:51.804Z,10.10
2019-05-29T03:34:45.723Z,10.10
2019-05-29T03:37:28.059Z,10.00
2019-05-29T03:40:14.700Z,10.10
2019-05-29T03:43:01.304Z,10.20
2019-05-29T03:45:47.785Z,10.10
2019-05-29T03:48:34.509Z,10.00
2019-05-29T03:51:21.036Z,10.00
2019-05-29T03:54:07.616Z,10.20
2019-05-29T03:56:54.031Z,10.10
2019-05-29T03:59:40.449Z,10.10
2019-05-29T04:02:28.529Z,10.10
2019-05-29T04:05:15.380Z,10.30
2019-05-29T04:08:02.165Z,10.30
2019-05-29T04:10:48.992Z,10.20
2019-05-29T04:13:36.251Z,10.20
2019-05-29T04:16:24.675Z,10.30
2019-05-29T04:19:12.031Z,10.30
2019-05-29T04:22:00.174Z,10.30
2019-05-29T04:24:48.514Z,10.40
2019-05-29T04:27:35.962Z,10.40
2019-05-29T04:30:22.532Z,10.20
2019-05-29T04:33:08.945Z,10.30
2019-05-29T04:35:55.545Z,10.30
2019-05-29T04:38:42.265Z,10.40
2019-05-29T04:41:29.304Z,10.40
2019-05-29T04:44:16.539Z,10.20
2019-05-29T04:47:11.240Z,10.20
2019-05-29T04:49:51.465Z,10.20
2019-05-29T04:52:39.795Z,10.00
2019-05-29T04:55:26.002Z,10.10
2019-05-29T04:58:12.688Z,10.20
2019-05-29T05:00:59.714Z,10.10
2019-05-29T05:03:46.441Z,10.10
2019-05-29T05:06:33.186Z,10.10
2019-05-29T05:09:19.976Z,10.10
2019-05-29T05:12:06.653Z,10.10
2019-05-29T05:14:53.198Z,10.20
2019-05-29T05:17:40.114Z,10.40
2019-05-29T05:20:26.709Z,10.40
2019-05-29T05:23:12.968Z,10.20
2019-05-29T05:25:59.697Z,10.30
2019-05-29T05:28:47.018Z,10.10
2019-05-29T05:31:34.930Z,10.20
2019-05-29T05:34:21.644Z,10.20
2019-05-29T05:37:08.618Z,10.10
2019-05-29T05:39:54.737Z,10.10
2019-05-29T05:42:41.359Z,10.20
2019-05-29T05:45:27.847Z,10.40
2019-05-29T05:48:14.236Z,10.30
2019-05-29T05:51:01.008Z,10.40
2019-05-29T05:53:47.857Z,10.40
2019-05-29T05:56:35.628Z,10.40
2019-05-29T05:59:22.680Z,10.40
2019-05-29T06:02:09.269Z,10.50
2019-05-29T06:04:55.887Z,10.60
2019-05-29T06:07:42.792Z,10.50
2019-05-29T06:10:29.040Z,10.50
2019-05-29T06:13:15.484Z,10.60
2019-05-29T06:16:02.354Z,10.70
2019-05-29T06:18:48.960Z,10.70
2019-05-29T06:21:35.164Z,11.00
2019-05-29T06:24:22.162Z,11.10
2019-05-29T06:27:08.488Z,11.20
2019-05-29T06:29:55.160Z,11.20
2019-05-29T06:32:41.681Z,11.50
2019-05-29T06:35:28.522Z,11.50
2019-05-29T06:38:15.673Z,11.40
2019-05-29T06:41:02.022Z,11.40
2019-05-29T06:43:48.276Z,11.60
2019-05-29T06:46:36.065Z,11.90
2019-05-29T06:49:23.121Z,12.00
2019-05-29T06:52:09.707Z,12.30
2019-05-29T06:54:56.038Z,12.50
2019-05-29T06:57:44.412Z,12.50
2019-05-29T07:00:35.285Z,12.40
2019-05-29T07:03:19.405Z,12.30
2019-05-29T07:06:05.912Z,12.20
2019-05-29T07:08:52.443Z,12.40
2019-05-29T07:11:39.024Z,12.40
2019-05-29T07:14:25.732Z,12.40
2019-05-29T07:17:12.215Z,12.30
2019-05-29T07:20:03.566Z,12.60
2019-05-29T07:22:47.093Z,12.90
2019-05-29T07:25:34.077Z,13.20
2019-05-29T07:28:20.597Z,13.00
2019-05-29T07:31:07.030Z,12.90
2019-05-29T07:33:53.704Z,13.10
2019-05-29T07:36:41.823Z,13.20
2019-05-29T07:39:28.397Z,13.30
2019-05-29T07:42:14.997Z,13.20
2019-05-29T07:45:01.727Z,13.10
2019-05-29T07:47:48.643Z,13.20
2019-05-29T07:50:35.257Z,13.10
2019-05-29T07:53:21.823Z,13.20
2019-05-29T07:56:22.092Z,13.10
2019-05-29T07:59:03.154Z,12.80
2019-05-29T08:01:49.354Z,12.50
2019-05-29T08:04:35.803Z,12.40
2019-05-29T08:07:22.767Z,12.10
2019-05-29T08:10:09.872Z,12.40
2019-05-29T08:12:56.647Z,12.00
2019-05-29T08:16:00.948Z,12.20
2019-05-29T08:18:31.213Z,12.40
2019-05-29T08:21:18.043Z,12.70
2019-05-29T08:24:04.339Z,12.50
2019-05-29T08:26:51.089Z,12.50
2019-05-29T08:29:38.041Z,12.30
2019-05-29T08:32:24.806Z,12.20
2019-05-29T08:35:11.201Z,12.40
2019-05-29T08:37:57.932Z,12.50
2019-05-29T08:40:45.119Z,12.60
2019-05-29T08:43:31.669Z,12.70
2019-05-29T08:46:18.291Z,12.90
2019-05-29T08:49:05.011Z,13.10
2019-05-29T08:51:52.293Z,12.90
2019-05-29T08:54:39.262Z,12.60
2019-05-29T08:57:25.925Z,12.50
2019-05-29T09:00:12.887Z,12.70
2019-05-29T09:02:59.428Z,12.90
2019-05-29T09:05:46.689Z,12.90
2019-05-29T09:08:33.369Z,13.00
2019-05-29T09:11:19.858Z,13.10
2019-05-29T09:14:06.528Z,13.00
2019-05-29T09:16:53.042Z,12.70
2019-05-29T09:19:39.809Z,12.80
2019-05-29T09:22:26.277Z,12.90
2019-05-29T09:25:14.240Z,12.90
2019-05-29T09:28:00.946Z,12.90
2019-05-29T09:30:47.022Z,12.80
2019-05-29T09:33:33.183Z,12.70
2019-05-29T09:36:20.683Z,12.30
2019-05-29T09:39:08.479Z,12.20
2019-05-29T09:41:54.591Z,12.30
2019-05-29T09:44:41.038Z,12.40
2019-05-29T09:47:27.520Z,12.50
2019-05-29T09:50:14.322Z,12.60
2019-05-29T09:53:02.254Z,12.80
2019-05-29T09:55:49.127Z,13.00
2019-05-29T09:58:35.870Z,13.00
2019-05-29T10:01:24.510Z,12.90
2019-05-29T10:04:10.595Z,12.90
2019-05-29T10:06:57.613Z,12.80
2019-05-29T10:09:44.149Z,12.90
2019-05-29T10:12:31.317Z,13.00
2019-05-29T10:15:19.062Z,12.80
2019-05-29T10:18:09.939Z,12.70
2019-05-29T10:20:54.765Z,12.60
2019-05-29T10:23:42.737Z,12.40
2019-05-29T10:26:31.199Z,12.30
2019-05-29T10:29:17.706Z,12.20
2019-05-29T10:32:04.099Z,12.30
2019-05-29T10:34:50.887Z,12.30
2019-05-29T10:37:37.327Z,12.20
2019-05-29T10:40:23.866Z,12.40
2019-05-29T10:43:10.312Z,12.50
2019-05-29T10:45:56.826Z,12.50
2019-05-29T10:48:44.496Z,12.50
2019-05-29T10:51:31.527Z,12.70
2019-05-29T10:54:18.027Z,12.80
2019-05-29T10:57:04.633Z,13.10
2019-05-29T10:59:51.077Z,13.00
2019-05-29T11:02:37.865Z,12.90
2019-05-29T11:05:24.582Z,13.00
2019-05-29T11:08:11.411Z,13.10
2019-05-29T11:10:57.709Z,13.30
2019-05-29T11:13:44.213Z,13.30
2019-05-29T11:16:30.728Z,13.20
2019-05-29T11:19:17.076Z,13.30
2019-05-29T11:22:24.770Z,13.30
2019-05-29T11:24:52.485Z,13.40
2019-05-29T11:27:39.343Z,13.50
2019-05-29T11:30:25.937Z,13.50
2019-05-29T11:33:12.517Z,13.50
2019-05-29T11:36:09.869Z,13.50
2019-05-29T11:38:47.300Z,13.60
2019-05-29T11:41:33.947Z,13.50
2019-05-29T11:44:20.487Z,13.50
2019-05-29T11:47:07.072Z,13.40
2019-05-29T11:49:55.052Z,13.30
2019-05-29T11:52:43.280Z,13.30
2019-05-29T11:55:30.227Z,13.50
2019-05-29T11:58:30.729Z,13.60
2019-05-29T12:01:05.224Z,13.80
2019-05-29T12:04:13.226Z,13.90
2019-05-29T12:06:39.741Z,14.20
2019-05-29T12:09:33.051Z,14.30
2019-05-29T12:12:14.158Z,14.50
2019-05-29T12:15:11.086Z,14.80
2019-05-29T12:17:48.864Z,15.10
2019-05-29T12:20:35.744Z,15.20
2019-05-29T12:23:26.350Z,15.20
2019-05-29T12:26:21.785Z,15.20
2019-05-29T12:29:04.813Z,15.30
2019-05-29T12:31:46.678Z,15.10
2019-05-29T12:34:33.342Z,15.00
2019-05-29T12:37:20.288Z,14.70
2019-05-29T12:40:08.653Z,14.70
2019-05-29T12:42:55.740Z,14.60
2019-05-29T12:45:42.275Z,14.60
2019-05-29T12:48:28.988Z,14.60
2019-05-29T12:51:15.798Z,14.50
2019-05-29T12:54:02.457Z,14.50
2019-05-29T12:56:49.075Z,14.80
2019-05-29T12:59:37.199Z,14.60
2019-05-29T13:02:23.908Z,14.70
2019-05-29T13:05:18.362Z,14.80
2019-05-29T13:07:59.003Z,14.60
2019-05-29T13:10:46.317Z,14.70
2019-05-29T13:13:32.701Z,14.60
2019-05-29T13:16:19.438Z,14.60
2019-05-29T13:19:06.018Z,14.80
2019-05-29T13:21:52.649Z,14.60
2019-05-29T13:24:39.365Z,14.90
2019-05-29T13:27:26.046Z,14.90
2019-05-29T13:30:13.029Z,14.70
2019-05-29T13:33:03.631Z,14.60
2019-05-29T13:35:48.221Z,14.30
2019-05-29T13:38:35.053Z,16.10
2019-05-29T13:41:22.200Z,16.60
2019-05-29T13:44:08.858Z,16.40
2019-05-29T13:46:55.532Z,15.80
2019-05-29T13:49:41.944Z,16.30
2019-05-29T13:52:28.446Z,16.00
2019-05-29T13:55:16.549Z,15.40
2019-05-29T13:58:03.779Z,15.20
2019-05-29T14:00:51.782Z,15.10
2019-05-29T14:03:38.484Z,15.00
2019-05-29T14:06:25.212Z,15.10
2019-05-29T14:09:11.686Z,15.00
2019-05-29T14:11:58.937Z,15.00
2019-05-29T14:14:46.032Z,15.00
2019-05-29T14:17:34.681Z,15.20
2019-05-29T14:20:20.838Z,15.10
2019-05-29T14:23:07.518Z,15.00
2019-05-29T14:25:54.297Z,15.20
2019-05-29T14:28:40.605Z,15.50
2019-05-29T14:31:27.537Z,15.70
2019-05-29T14:34:14.168Z,15.10
2019-05-29T14:37:04.177Z,15.20
2019-05-29T14:39:49.251Z,15.20
2019-05-29T14:42:35.758Z,14.90
2019-05-29T14:45:22.268Z,15.40
2019-05-29T14:48:08.532Z,15.60
2019-05-29T14:50:55.101Z,16.20
2019-05-29T14:53:41.706Z,16.50
2019-05-29T14:56:28.195Z,17.30
2019-05-29T14:59:15.221Z,17.30
2019-05-29T15:02:06.158Z,18.10
2019-05-29T15:04:49.983Z,18.80
2019-05-29T15:07:36.952Z,19.90
2019-05-29T15:10:27.549Z,21.00
2019-05-29T15:13:13.311Z,19.70
2019-05-29T15:15:59.647Z,18.40
2019-05-29T15:18:46.589Z,18.30
2019-05-29T15:21:32.758Z,17.50
2019-05-29T15:24:19.095Z,17.00
2019-05-29T15:27:05.834Z,16.70
2019-05-29T15:29:52.299Z,16.10
2019-05-29T15:32:38.805Z,16.40
2019-05-29T15:35:25.229Z,16.10
2019-05-29T15:38:12.832Z,15.50
2019-05-29T15:40:59.713Z,15.10
2019-05-29T15:43:49.249Z,15.10
2019-05-29T15:46:34.890Z,14.90
2019-05-29T15:49:21.346Z,14.80
2019-05-29T15:52:08.999Z,14.80
2019-05-29T15:54:55.769Z,15.20
2019-05-29T15:57:41.981Z,15.80
2019-05-29T16:00:28.504Z,15.60
2019-05-29T16:03:15.606Z,15.20
2019-05-29T16:06:02.455Z,15.20
2019-05-29T16:08:48.808Z,15.50
2019-05-29T16:11:35.673Z,15.70
2019-05-29T16:14:22.348Z,16.00
2019-05-29T16:17:09.234Z,16.50
2019-05-29T16:19:55.956Z,16.40
2019-05-29T16:22:42.484Z,16.90
2019-05-29T16:25:39.745Z,16.30
2019-05-29T16:28:17.250Z,15.90
2019-05-29T16:31:03.951Z,16.70
2019-05-29T16:33:50.388Z,17.10
2019-05-29T16:36:36.904Z,17.60
2019-05-29T16:39:23.329Z,17.40
2019-05-29T16:42:09.757Z,17.40
2019-05-29T16:44:56.770Z,17.40
2019-05-29T16:47:43.167Z,16.90
2019-05-29T16:50:30.068Z,16.80
2019-05-29T16:53:16.768Z,16.40
2019-05-29T16:56:03.601Z,16.90
2019-05-29T16:58:50.000Z,17.00
2019-05-29T17:01:36.743Z,16.80
2019-05-29T17:04:23.936Z,16.00
2019-05-29T17:07:10.265Z,16.00
2019-05-29T17:09:57.117Z,16.10
2019-05-29T17:12:43.863Z,16.10
2019-05-29T17:15:30.602Z,15.90
2019-05-29T17:18:17.169Z,15.80
2019-05-29T17:21:03.925Z,15.60
2019-05-29T17:23:50.149Z,15.60
2019-05-29T17:26:36.681Z,15.40
2019-05-29T17:29:23.298Z,15.20
2019-05-29T17:32:09.823Z,15.30
2019-05-29T17:34:56.323Z,15.30
2019-05-29T17:37:42.918Z,15.00
2019-05-29T17:40:29.963Z,14.90
2019-05-29T17:43:20.221Z,14.70
2019-05-29T17:46:04.448Z,14.80
2019-05-29T17:48:51.378Z,14.50
2019-05-29T17:51:37.823Z,14.40
2019-05-29T17:54:24.365Z,14.40
2019-05-29T17:57:10.857Z,14.30
2019-05-29T17:59:57.173Z,14.10
2019-05-29T18:02:51.845Z,14.10
2019-05-29T18:05:32.577Z,14.20
2019-05-29T18:08:20.493Z,14.30
2019-05-29T18:11:07.670Z,14.00
2019-05-29T18:13:54.124Z,14.00
2019-05-29T18:16:40.567Z,14.00
2019-05-29T18:19:28.216Z,13.80
2019-05-29T18:22:14.980Z,13.90
2019-05-29T18:25:02.241Z,14.10
2019-05-29T18:27:48.838Z,13.90
2019-05-29T18:30:35.438Z,13.80
2019-05-29T18:33:22.833Z,13.60
2019-05-29T18:36:15.271Z,13.60
2019-05-29T18:39:01.849Z,13.60
2019-05-29T18:41:48.712Z,13.40
2019-05-29T18:44:35.416Z,13.50
2019-05-29T18:47:22.931Z,13.50
2019-05-29T18:50:12.051Z,13.40
2019-05-29T18:52:58.713Z,13.40
2019-05-29T18:55:45.185Z,13.30
2019-05-29T18:58:32.348Z,13.00
2019-05-29T19:01:19.161Z,13.00
2019-05-29T19:04:05.757Z,12.90
2019-05-29T19:06:52.327Z,12.80
2019-05-29T19:09:38.818Z,12.70
2019-05-29T19:12:25.770Z,12.70
2019-05-29T19:15:13.388Z,12.60
2019-05-29T19:18:00.106Z,12.60
2019-05-29T19:20:46.466Z,12.40
2019-05-29T19:23:33.290Z,12.30
2019-05-29T19:26:19.883Z,12.20
2019-05-29T19:29:06.737Z,12.20
2019-05-29T19:31:53.069Z,12.20
2019-05-29T19:34:39.485Z,12.10
2019-05-29T19:37:26.000Z,12.00
2019-05-29T19:40:13.061Z,11.90
2019-05-29T19:42:59.312Z,11.80
2019-05-29T19:45:45.756Z,11.70
2019-05-29T19:48:33.046Z,11.60
2019-05-29T19:51:19.411Z,11.50
2019-05-29T19:54:06.251Z,11.30
2019-05-29T19:56:52.979Z,11.20
2019-05-29T19:59:39.416Z,11.20
2019-05-29T20:02:26.506Z,11.10
2019-05-29T20:05:13.706Z,10.80
2019-05-29T20:08:00.087Z,10.80
2019-05-29T20:10:46.456Z,10.70
2019-05-29T20:13:34.155Z,10.60
2019-05-29T20:16:20.854Z,10.60
2019-05-29T20:19:07.346Z,10.60
2019-05-29T20:21:54.139Z,10.50
2019-05-29T20:24:40.740Z,10.40
2019-05-29T20:27:27.361Z,10.40
2019-05-29T20:30:18.043Z,10.40
2019-05-29T20:33:04.571Z,10.30
2019-05-29T20:35:51.408Z,10.20
2019-05-29T20:38:37.893Z,10.20
2019-05-29T20:41:25.676Z,10.10
2019-05-29T20:44:12.116Z,9.90
2019-05-29T20:46:58.736Z,9.90
2019-05-29T20:49:47.386Z,9.90
2019-05-29T20:52:35.083Z,9.80
2019-05-29T20:55:21.793Z,9.50
2019-05-29T20:58:23.507Z,9.40
2019-05-29T21:00:56.509Z,9.50
2019-05-29T21:03:43.362Z,9.50
2019-05-29T21:06:29.622Z,9.50
2019-05-29T21:09:16.069Z,9.40
2019-05-29T21:12:02.524Z,9.40
2019-05-29T21:14:49.213Z,9.40
2019-05-29T21:17:35.795Z,9.40
2019-05-29T21:20:22.128Z,9.30
2019-05-29T21:23:08.566Z,9.10
2019-05-29T21:25:55.074Z,9.00
2019-05-29T21:28:46.770Z,8.90
2019-05-29T21:31:29.772Z,9.00
2019-05-29T21:34:16.499Z,8.90
2019-05-29T21:37:03.200Z,8.70
2019-05-29T21:39:49.932Z,8.70
2019-05-29T21:42:36.548Z,8.70
2019-05-29T21:45:23.468Z,8.70
2019-05-29T21:48:09.996Z,8.60
2019-05-29T21:50:56.708Z,8.60
2019-05-29T21:53:43.470Z,8.60
2019-05-29T21:56:29.969Z,8.60
2019-05-29T21:59:16.544Z,8.50
2019-05-29T22:02:03.897Z,8.30
2019-05-29T22:04:50.194Z,8.30
2019-05-29T22:07:36.905Z,8.40
2019-05-29T22:10:26.169Z,8.30
2019-05-29T22:13:12.440Z,8.20
2019-05-29T22:15:59.115Z,8.20
2019-05-29T22:18:45.927Z,8.30
2019-05-29T22:21:32.433Z,8.30
2019-05-29T22:24:18.851Z,8.10
2019-05-29T22:27:05.534Z,7.90
2019-05-29T22:29:53.468Z,7.60
2019-05-29T22:32:40.277Z,7.80
2019-05-29T22:35:27.393Z,7.80
2019-05-29T22:38:13.827Z,7.80
2019-05-29T22:41:01.709Z,7.90
2019-05-29T22:43:48.863Z,7.70
2019-05-29T22:46:35.618Z,7.70
2019-05-29T22:49:22.430Z,7.70
2019-05-29T22:52:08.634Z,7.60
2019-05-29T22:54:55.805Z,7.60
2019-05-29T22:57:42.896Z,7.50
2019-05-29T23:00:29.138Z,7.60
2019-05-29T23:03:16.148Z,7.50
2019-05-29T23:06:02.469Z,7.50
2019-05-29T23:08:48.985Z,7.40
2019-05-29T23:11:35.318Z,7.40
2019-05-29T23:14:21.934Z,7.30
2019-05-29T23:17:08.552Z,7.30
2019-05-29T23:19:54.882Z,7.20
2019-05-29T23:22:41.704Z,7.20
2019-05-29T23:25:28.395Z,7.20
2019-05-29T23:28:15.075Z,7.20
2019-05-29T23:31:02.957Z,7.20
2019-05-29T23:33:49.487Z,6.90
2019-05-29T23:36:36.248Z,6.80
2019-05-29T23:39:22.847Z,6.90
2019-05-29T23:42:09.232Z,6.90
2019-05-29T23:44:55.974Z,6.90
2019-05-29T23:47:42.700Z,6.90
2019-05-29T23:50:29.424Z,6.90
2019-05-29T23:53:16.346Z,6.90
2019-05-29T23:56:04.000Z,6.80
2019-05-29T23:58:50.902Z,6.80
